Cleveland, ME

8:32 AM EDT on April 26, 2017 (GMT -0400)
Northern Aroostook Regional | | Change Station

Elev 988 ft 47.29 °N, 68.31 °W | Updated 12 minutes ago

Light Rain
Light Rain Mist
40 °F
Feels Like 33 °F
N
10
Wind Variable Wind from SSE

Today
High -- | Low -- °F
--% Chance of Precip.
Yesterday
High -- | Low -- °F
Precip. -- in
Pressure 30.10 in
Visibility 0.8 miles
Clouds Overcast 300 ft
Windchill 33 °F
Dew Point 38 °F
Humidity 93%
Rainfall 0.30 in
Snow Depth Not available.
5:24 AM 7:38 PM
New Moon, 0% visible
SPECI KFVE 261220Z AUTO 16009KT 3/4SM -RA BR OVC003 04/03 A3010 RMK AO2 P0000 T00440033
Pressure 30.10 in
Visibility 0.8 miles
Clouds Overcast 300 ft
Windchill 33 °F
Dew Point 38 °F
Humidity 93%
Rainfall 0.30 in
Snow Depth Not available.
5:24 AM 7:38 PM
New Moon, 0% visible
SPECI KFVE 261220Z AUTO 16009KT 3/4SM -RA BR OVC003 04/03 A3010 RMK AO2 P0000 T00440033

Get Severe Weather Alerts

Thanks for signing up!

Be on the lookout for a verification email in your inbox.

You'll start receiving the daily forecast at 8 AM.

×

10-Day Weather Forecast

Almanac

Astronomy

Apr. 26, 2017 Rise Set
Actual Time
Civil Twilight
Nautical Twilight
Astronomical Twilight
Moon
Length of Visible Light
Length of Day
Tomorrow will be .
, % of the Moon is Illuminated

Today's Extremes

State Highs State Lows

Community

WunderPhotos

WunderBlog® & News

Nearby

Air Quality

  Air Quality AQ Index Pollutant
Not available.

Snow Depth

Station Depth Elevation

Earthquake Activity

City Distance Mag. Time & Date
Minimum magnitude displayed is 2.5.

Coastal Water Temperatures

Place Temperature

Stations

Nearby Weather Stations

Station Location Temp. Windchill Dew Point Humidity Wind Precip. Elev Updated Type
                   

Watches & Warnings

There are currently no watches in effect.